TAM3894 SBBR-SBCY
Flight info
| Callsign | TAM3894 |
|---|---|
| Flight time | 1h 18m |
| Altitude | 36000 |
| Route | SIREM DCT LODOV DCT MABMA DCT BOKIM |
| Aircraft | A319/M-SDE2FGHIM1RWXYZ/LB1 |
Departure
| Time | 2026-04-25 23:28 |
|---|---|
| Airport | Presidente Juscelino Kubitschek International Airport (SBBR) |
Arrival
| Time | 2026-04-26 00:47 |
|---|---|
| Airport | Várzea Grande–Marechal Rondon International Airport (SBCY) |
| Time | Latitude | Longitude | Altitude | Speed | Heading |
|---|---|---|---|---|---|
| 2026-04-25 22:55 | -15.87259 | -47.91757 | 3472 ft | 0 kts | 356° |
| 2026-04-25 23:15 | -15.87270 | -47.91756 | 3470 ft | 3 kts | 359° |
| 2026-04-25 23:15 | -15.87290 | -47.91757 | 3471 ft | 3 kts | 10° |
| 2026-04-25 23:15 | -15.87308 | -47.91762 | 3471 ft | 3 kts | 36° |
| 2026-04-25 23:16 | -15.87320 | -47.91775 | 3472 ft | 3 kts | 83° |
| 2026-04-25 23:16 | -15.87320 | -47.91778 | 3472 ft | 0 kts | 86° |
| 2026-04-25 23:20 | -15.87319 | -47.91770 | 3472 ft | 3 kts | 86° |
| 2026-04-25 23:20 | -15.87317 | -47.91728 | 3472 ft | 9 kts | 86° |
| 2026-04-25 23:20 | -15.87335 | -47.91671 | 3471 ft | 9 kts | 154° |
| 2026-04-25 23:20 | -15.87403 | -47.91662 | 3471 ft | 9 kts | 176° |
| 2026-04-25 23:21 | -15.87468 | -47.91658 | 3470 ft | 12 kts | 176° |
| 2026-04-25 23:21 | -15.87569 | -47.91651 | 3467 ft | 16 kts | 176° |
| 2026-04-25 23:21 | -15.87679 | -47.91644 | 3464 ft | 15 kts | 176° |
| 2026-04-25 23:21 | -15.87738 | -47.91707 | 3463 ft | 13 kts | 262° |
| 2026-04-25 23:22 | -15.87741 | -47.91773 | 3464 ft | 9 kts | 267° |
| 2026-04-25 23:22 | -15.87746 | -47.91842 | 3466 ft | 10 kts | 266° |
| 2026-04-25 23:22 | -15.87751 | -47.91916 | 3468 ft | 12 kts | 266° |
| 2026-04-25 23:23 | -15.87761 | -47.92072 | 3468 ft | 11 kts | 267° |
| 2026-04-25 23:23 | -15.87766 | -47.92145 | 3472 ft | 8 kts | 266° |
| 2026-04-25 23:23 | -15.87770 | -47.92208 | 3473 ft | 9 kts | 265° |
| 2026-04-25 23:23 | -15.87775 | -47.92276 | 3474 ft | 10 kts | 265° |
| 2026-04-25 23:24 | -15.87780 | -47.92346 | 3475 ft | 10 kts | 267° |
| 2026-04-25 23:24 | -15.87784 | -47.92420 | 3473 ft | 11 kts | 266° |
| 2026-04-25 23:24 | -15.87790 | -47.92505 | 3476 ft | 14 kts | 266° |
| 2026-04-25 23:24 | -15.87797 | -47.92613 | 3476 ft | 16 kts | 266° |
| 2026-04-25 23:25 | -15.87804 | -47.92727 | 3477 ft | 16 kts | 266° |
| 2026-04-25 23:25 | -15.87811 | -47.92840 | 3479 ft | 16 kts | 266° |
| 2026-04-25 23:25 | -15.87819 | -47.92957 | 3481 ft | 17 kts | 266° |
| 2026-04-25 23:25 | -15.87827 | -47.93079 | 3483 ft | 17 kts | 266° |
| 2026-04-25 23:26 | -15.87834 | -47.93193 | 3486 ft | 14 kts | 265° |
| 2026-04-25 23:26 | -15.87840 | -47.93284 | 3494 ft | 11 kts | 265° |
| 2026-04-25 23:26 | -15.87853 | -47.93356 | 3497 ft | 9 kts | 236° |
| 2026-04-25 23:26 | -15.87913 | -47.93372 | 3502 ft | 10 kts | 165° |
| 2026-04-25 23:27 | -15.87962 | -47.93310 | 3501 ft | 13 kts | 116° |
| 2026-04-25 23:27 | -15.88010 | -47.93259 | 3487 ft | 9 kts | 156° |
| 2026-04-25 23:27 | -15.88012 | -47.93144 | 3486 ft | 38 kts | 87° |
| 2026-04-25 23:27 | -15.87978 | -47.92627 | 3479 ft | 104 kts | 86° |
| 2026-04-25 23:28 | -15.87919 | -47.91672 | 3509 ft | 154 kts | 88° |
| 2026-04-25 23:28 | -15.87961 | -47.90571 | 4044 ft | 156 kts | 110° |
| 2026-04-25 23:28 | -15.88710 | -47.89771 | 4282 ft | 169 kts | 161° |
| 2026-04-25 23:28 | -15.89926 | -47.89495 | 4465 ft | 190 kts | 166° |
| 2026-04-25 23:29 | -15.91282 | -47.89138 | 4630 ft | 213 kts | 164° |
| 2026-04-25 23:29 | -15.92796 | -47.88702 | 4861 ft | 238 kts | 163° |
| 2026-04-25 23:29 | -15.94444 | -47.88212 | 5246 ft | 261 kts | 163° |
| 2026-04-25 23:29 | -15.96225 | -47.87678 | 5917 ft | 271 kts | 163° |
| 2026-04-25 23:30 | -15.98051 | -47.87127 | 6738 ft | 276 kts | 163° |
| 2026-04-25 23:30 | -15.99905 | -47.86565 | 7544 ft | 280 kts | 163° |
| 2026-04-25 23:30 | -16.01794 | -47.85992 | 8369 ft | 285 kts | 164° |
| 2026-04-25 23:30 | -16.03754 | -47.85616 | 8928 ft | 290 kts | 183° |
| 2026-04-25 23:31 | -16.05668 | -47.86212 | 9065 ft | 289 kts | 214° |
| 2026-04-25 23:31 | -16.06945 | -47.87800 | 9406 ft | 294 kts | 248° |
| 2026-04-25 23:31 | -16.07332 | -47.89844 | 10232 ft | 295 kts | 265° |
| 2026-04-25 23:31 | -16.07491 | -47.92048 | 10554 ft | 316 kts | 266° |
| 2026-04-25 23:32 | -16.07636 | -47.94373 | 11073 ft | 327 kts | 266° |
| 2026-04-25 23:32 | -16.07815 | -47.96751 | 11732 ft | 332 kts | 262° |
| 2026-04-25 23:32 | -16.08396 | -47.99083 | 12375 ft | 336 kts | 249° |
| 2026-04-25 23:32 | -16.09439 | -48.01273 | 13027 ft | 340 kts | 241° |
| 2026-04-25 23:33 | -16.10590 | -48.03439 | 13670 ft | 344 kts | 241° |
| 2026-04-25 23:33 | -16.11751 | -48.05628 | 14222 ft | 348 kts | 241° |
| 2026-04-25 23:33 | -16.12922 | -48.07848 | 14756 ft | 351 kts | 242° |
| 2026-04-25 23:33 | -16.13749 | -48.10212 | 15241 ft | 356 kts | 259° |
| 2026-04-25 23:34 | -16.14103 | -48.12773 | 15769 ft | 360 kts | 262° |
| 2026-04-25 23:34 | -16.14430 | -48.15363 | 16285 ft | 363 kts | 262° |
| 2026-04-25 23:34 | -16.14755 | -48.17984 | 16795 ft | 367 kts | 262° |
| 2026-04-25 23:34 | -16.15083 | -48.20629 | 17305 ft | 371 kts | 262° |
| 2026-04-25 23:35 | -16.15415 | -48.23304 | 17817 ft | 374 kts | 262° |
| 2026-04-25 23:35 | -16.15754 | -48.26001 | 18330 ft | 378 kts | 262° |
| 2026-04-25 23:35 | -16.16098 | -48.28718 | 18766 ft | 381 kts | 262° |
| 2026-04-25 23:35 | -16.16443 | -48.31456 | 19217 ft | 383 kts | 262° |
| 2026-04-25 23:36 | -16.16789 | -48.34215 | 19673 ft | 386 kts | 262° |
| 2026-04-25 23:36 | -16.17134 | -48.36951 | 20121 ft | 388 kts | 262° |
| 2026-04-25 23:36 | -16.17486 | -48.39746 | 20576 ft | 391 kts | 262° |
| 2026-04-25 23:36 | -16.17836 | -48.42560 | 21029 ft | 393 kts | 262° |
| 2026-04-25 23:37 | -16.18184 | -48.45390 | 21482 ft | 396 kts | 262° |
| 2026-04-25 23:37 | -16.18534 | -48.48240 | 21929 ft | 398 kts | 262° |
| 2026-04-25 23:37 | -16.18888 | -48.51105 | 22366 ft | 401 kts | 262° |
| 2026-04-25 23:37 | -16.19249 | -48.53991 | 22802 ft | 403 kts | 262° |
| 2026-04-25 23:38 | -16.19614 | -48.56891 | 23231 ft | 406 kts | 262° |
| 2026-04-25 23:38 | -16.19981 | -48.59816 | 23652 ft | 409 kts | 262° |
| 2026-04-25 23:38 | -16.20350 | -48.62756 | 24019 ft | 411 kts | 262° |
| 2026-04-25 23:38 | -16.20719 | -48.65717 | 24388 ft | 414 kts | 262° |
| 2026-04-25 23:39 | -16.21090 | -48.68690 | 24761 ft | 416 kts | 262° |
| 2026-04-25 23:39 | -16.21455 | -48.71642 | 25124 ft | 418 kts | 263° |
| 2026-04-25 23:39 | -16.21824 | -48.74647 | 25485 ft | 420 kts | 263° |
| 2026-04-25 23:39 | -16.22195 | -48.77671 | 25913 ft | 422 kts | 263° |
| 2026-04-25 23:40 | -16.22569 | -48.80710 | 26279 ft | 425 kts | 263° |
| 2026-04-25 23:40 | -16.22946 | -48.83768 | 26644 ft | 427 kts | 262° |
| 2026-04-25 23:40 | -16.23325 | -48.86848 | 26954 ft | 431 kts | 262° |
| 2026-04-25 23:40 | -16.23707 | -48.89953 | 27292 ft | 434 kts | 262° |
| 2026-04-25 23:41 | -16.24089 | -48.93072 | 27631 ft | 436 kts | 262° |
| 2026-04-25 23:41 | -16.24474 | -48.96208 | 27974 ft | 439 kts | 262° |
| 2026-04-25 23:41 | -16.24860 | -48.99366 | 28321 ft | 441 kts | 262° |
| 2026-04-25 23:41 | -16.25241 | -49.02496 | 28668 ft | 443 kts | 262° |
| 2026-04-25 23:42 | -16.25628 | -49.05688 | 29010 ft | 445 kts | 262° |
| 2026-04-25 23:42 | -16.26016 | -49.08890 | 29338 ft | 447 kts | 263° |
| 2026-04-25 23:42 | -16.26406 | -49.12113 | 29665 ft | 450 kts | 263° |
| 2026-04-25 23:42 | -16.26797 | -49.15353 | 29991 ft | 452 kts | 263° |
| 2026-04-25 23:43 | -16.27189 | -49.18608 | 30288 ft | 455 kts | 263° |
| 2026-04-25 23:43 | -16.27583 | -49.21884 | 30567 ft | 457 kts | 263° |
| 2026-04-25 23:43 | -16.27981 | -49.25174 | 30837 ft | 459 kts | 263° |
| 2026-04-25 23:43 | -16.28383 | -49.28474 | 31099 ft | 461 kts | 263° |
| 2026-04-25 23:44 | -16.28790 | -49.31794 | 31364 ft | 463 kts | 263° |
| 2026-04-25 23:44 | -16.29190 | -49.35077 | 31672 ft | 464 kts | 263° |
| 2026-04-25 23:44 | -16.29592 | -49.38405 | 32079 ft | 463 kts | 263° |
| 2026-04-25 23:44 | -16.29989 | -49.41723 | 32496 ft | 462 kts | 263° |
| 2026-04-25 23:45 | -16.30384 | -49.45040 | 32903 ft | 461 kts | 263° |
| 2026-04-25 23:45 | -16.30777 | -49.48347 | 33328 ft | 460 kts | 263° |
| 2026-04-25 23:45 | -16.31169 | -49.51653 | 33745 ft | 460 kts | 263° |
| 2026-04-25 23:45 | -16.31561 | -49.54949 | 34134 ft | 459 kts | 264° |
| 2026-04-25 23:46 | -16.31955 | -49.58242 | 34496 ft | 458 kts | 264° |
| 2026-04-25 23:46 | -16.32349 | -49.61526 | 34862 ft | 456 kts | 264° |
| 2026-04-25 23:46 | -16.32737 | -49.64753 | 35209 ft | 455 kts | 264° |
| 2026-04-25 23:46 | -16.33129 | -49.68017 | 35560 ft | 454 kts | 264° |
| 2026-04-25 23:47 | -16.33516 | -49.71280 | 35881 ft | 454 kts | 264° |
| 2026-04-25 23:47 | -16.34287 | -49.77816 | 35993 ft | 453 kts | 264° |
| 2026-04-25 23:48 | -16.35058 | -49.84320 | 35994 ft | 452 kts | 264° |
| 2026-04-25 23:48 | -16.35823 | -49.90819 | 35992 ft | 452 kts | 264° |
| 2026-04-25 23:49 | -16.36583 | -49.97275 | 35988 ft | 452 kts | 264° |
| 2026-04-25 23:49 | -16.37345 | -50.03772 | 35984 ft | 452 kts | 264° |
| 2026-04-25 23:50 | -16.38101 | -50.10263 | 35981 ft | 452 kts | 264° |
| 2026-04-25 23:50 | -16.38857 | -50.16751 | 35969 ft | 451 kts | 264° |
| 2026-04-25 23:51 | -16.39604 | -50.23187 | 35961 ft | 450 kts | 264° |
| 2026-04-25 23:51 | -16.40357 | -50.29662 | 35958 ft | 450 kts | 264° |
| 2026-04-25 23:52 | -16.41108 | -50.36139 | 35953 ft | 451 kts | 264° |
| 2026-04-25 23:52 | -16.41856 | -50.42616 | 35951 ft | 450 kts | 264° |
| 2026-04-25 23:53 | -16.42600 | -50.49097 | 35953 ft | 451 kts | 265° |
| 2026-04-25 23:53 | -16.43338 | -50.55535 | 35951 ft | 450 kts | 264° |
| 2026-04-25 23:54 | -16.44083 | -50.62015 | 35947 ft | 451 kts | 264° |
| 2026-04-25 23:54 | -16.44819 | -50.68496 | 35948 ft | 451 kts | 265° |
| 2026-04-25 23:55 | -16.45550 | -50.74983 | 35950 ft | 451 kts | 265° |
| 2026-04-25 23:55 | -16.46278 | -50.81426 | 35947 ft | 451 kts | 265° |
| 2026-04-25 23:56 | -16.47019 | -50.87915 | 35948 ft | 452 kts | 264° |
| 2026-04-25 23:56 | -16.47761 | -50.94411 | 35951 ft | 451 kts | 265° |
| 2026-04-25 23:57 | -16.48488 | -51.00901 | 35949 ft | 451 kts | 265° |
| 2026-04-25 23:57 | -16.49203 | -51.07348 | 35952 ft | 451 kts | 265° |
| 2026-04-25 23:58 | -16.49925 | -51.13836 | 35954 ft | 451 kts | 265° |
| 2026-04-25 23:58 | -16.50648 | -51.20323 | 35954 ft | 451 kts | 265° |
| 2026-04-25 23:59 | -16.51380 | -51.26811 | 35955 ft | 451 kts | 265° |
| 2026-04-25 23:59 | -16.52097 | -51.33259 | 35958 ft | 451 kts | 265° |
| 2026-04-26 00:00 | -16.52809 | -51.39751 | 35955 ft | 451 kts | 265° |
| 2026-04-26 00:00 | -16.53527 | -51.46250 | 35954 ft | 451 kts | 265° |
| 2026-04-26 00:01 | -16.54252 | -51.52745 | 35955 ft | 451 kts | 265° |
| 2026-04-26 00:01 | -16.54955 | -51.59200 | 35956 ft | 451 kts | 265° |
| 2026-04-26 00:02 | -16.55671 | -51.65696 | 35955 ft | 451 kts | 265° |
| 2026-04-26 00:02 | -16.56383 | -51.72198 | 35959 ft | 451 kts | 265° |
| 2026-04-26 00:03 | -16.57091 | -51.78695 | 35960 ft | 451 kts | 265° |
| 2026-04-26 00:03 | -16.57788 | -51.85149 | 35954 ft | 451 kts | 265° |
| 2026-04-26 00:04 | -16.58492 | -51.91644 | 35958 ft | 451 kts | 265° |
| 2026-04-26 00:04 | -16.59191 | -51.98140 | 35958 ft | 451 kts | 265° |
| 2026-04-26 00:05 | -16.59888 | -52.04636 | 35962 ft | 451 kts | 265° |
| 2026-04-26 00:05 | -16.60578 | -52.11086 | 35963 ft | 451 kts | 265° |
| 2026-04-26 00:06 | -16.61266 | -52.17582 | 35965 ft | 450 kts | 265° |
| 2026-04-26 00:06 | -16.61956 | -52.24070 | 35960 ft | 450 kts | 265° |
| 2026-04-26 00:07 | -16.62648 | -52.30561 | 35960 ft | 450 kts | 265° |
| 2026-04-26 00:07 | -16.63335 | -52.37041 | 35961 ft | 450 kts | 265° |
| 2026-04-26 00:08 | -16.64011 | -52.43483 | 35963 ft | 450 kts | 265° |
| 2026-04-26 00:08 | -16.64690 | -52.49970 | 35960 ft | 450 kts | 265° |
| 2026-04-26 00:09 | -16.65371 | -52.56460 | 35960 ft | 450 kts | 265° |
| 2026-04-26 00:09 | -16.66046 | -52.62948 | 35963 ft | 450 kts | 265° |
| 2026-04-26 00:10 | -16.66714 | -52.69391 | 35959 ft | 450 kts | 265° |
| 2026-04-26 00:10 | -16.67391 | -52.75877 | 35960 ft | 450 kts | 265° |
| 2026-04-26 00:11 | -16.68072 | -52.82364 | 35962 ft | 450 kts | 265° |
| 2026-04-26 00:11 | -16.68743 | -52.88846 | 35962 ft | 449 kts | 265° |
| 2026-04-26 00:12 | -16.69403 | -52.95278 | 35959 ft | 449 kts | 265° |
| 2026-04-26 00:12 | -16.70061 | -53.01752 | 35964 ft | 449 kts | 265° |
| 2026-04-26 00:13 | -16.70677 | -53.08227 | 35964 ft | 448 kts | 270° |
| 2026-04-26 00:13 | -16.69999 | -53.14617 | 35966 ft | 443 kts | 284° |
| 2026-04-26 00:14 | -16.68716 | -53.20850 | 35961 ft | 442 kts | 284° |
| 2026-04-26 00:14 | -16.67432 | -53.27123 | 35961 ft | 442 kts | 284° |
| 2026-04-26 00:15 | -16.66155 | -53.33399 | 35962 ft | 442 kts | 284° |
| 2026-04-26 00:15 | -16.64872 | -53.39674 | 35962 ft | 443 kts | 284° |
| 2026-04-26 00:16 | -16.63594 | -53.45909 | 35965 ft | 443 kts | 284° |
| 2026-04-26 00:16 | -16.62306 | -53.52188 | 35967 ft | 443 kts | 284° |
| 2026-04-26 00:17 | -16.61014 | -53.58467 | 35967 ft | 443 kts | 284° |
| 2026-04-26 00:17 | -16.59711 | -53.64742 | 35958 ft | 442 kts | 284° |
| 2026-04-26 00:18 | -16.58430 | -53.70969 | 35958 ft | 443 kts | 284° |
| 2026-04-26 00:18 | -16.57137 | -53.77234 | 35957 ft | 442 kts | 284° |
| 2026-04-26 00:19 | -16.55838 | -53.83491 | 35953 ft | 441 kts | 284° |
| 2026-04-26 00:19 | -16.54537 | -53.89744 | 35947 ft | 441 kts | 284° |
| 2026-04-26 00:20 | -16.53232 | -53.95993 | 35941 ft | 441 kts | 284° |
| 2026-04-26 00:20 | -16.51944 | -54.02205 | 35942 ft | 442 kts | 284° |
| 2026-04-26 00:20 | -16.51299 | -54.05340 | 35717 ft | 442 kts | 284° |
| 2026-04-26 00:21 | -16.50650 | -54.08471 | 35481 ft | 443 kts | 284° |
| 2026-04-26 00:21 | -16.49995 | -54.11603 | 35251 ft | 440 kts | 284° |
| 2026-04-26 00:21 | -16.49342 | -54.14709 | 34830 ft | 438 kts | 284° |
| 2026-04-26 00:21 | -16.48691 | -54.17811 | 34368 ft | 438 kts | 284° |
| 2026-04-26 00:22 | -16.48044 | -54.20903 | 33896 ft | 437 kts | 284° |
| 2026-04-26 00:22 | -16.47408 | -54.23951 | 33401 ft | 435 kts | 284° |
| 2026-04-26 00:22 | -16.46769 | -54.27018 | 32937 ft | 432 kts | 284° |
| 2026-04-26 00:22 | -16.46132 | -54.30069 | 32470 ft | 429 kts | 284° |
| 2026-04-26 00:23 | -16.45497 | -54.33098 | 32010 ft | 427 kts | 284° |
| 2026-04-26 00:23 | -16.44864 | -54.36116 | 31554 ft | 425 kts | 284° |
| 2026-04-26 00:23 | -16.44235 | -54.39113 | 31111 ft | 423 kts | 284° |
| 2026-04-26 00:23 | -16.43607 | -54.42098 | 30668 ft | 421 kts | 284° |
| 2026-04-26 00:24 | -16.42979 | -54.45066 | 30240 ft | 418 kts | 285° |
| 2026-04-26 00:24 | -16.42364 | -54.47974 | 29788 ft | 416 kts | 284° |
| 2026-04-26 00:24 | -16.41746 | -54.50907 | 29360 ft | 412 kts | 285° |
| 2026-04-26 00:24 | -16.41135 | -54.53809 | 28963 ft | 409 kts | 285° |
| 2026-04-26 00:25 | -16.40529 | -54.56690 | 28562 ft | 406 kts | 285° |
| 2026-04-26 00:25 | -16.39924 | -54.59546 | 28173 ft | 403 kts | 285° |
| 2026-04-26 00:25 | -16.39323 | -54.62382 | 27785 ft | 400 kts | 285° |
| 2026-04-26 00:25 | -16.38726 | -54.65206 | 27386 ft | 398 kts | 285° |
| 2026-04-26 00:26 | -16.38129 | -54.68012 | 26992 ft | 396 kts | 285° |
| 2026-04-26 00:26 | -16.37543 | -54.70769 | 26600 ft | 394 kts | 285° |
| 2026-04-26 00:26 | -16.36954 | -54.73547 | 26185 ft | 392 kts | 285° |
| 2026-04-26 00:26 | -16.36366 | -54.76316 | 25780 ft | 391 kts | 285° |
| 2026-04-26 00:27 | -16.35780 | -54.79074 | 25359 ft | 389 kts | 285° |
| 2026-04-26 00:27 | -16.35197 | -54.81820 | 24933 ft | 388 kts | 284° |
| 2026-04-26 00:27 | -16.34617 | -54.84557 | 24507 ft | 387 kts | 284° |
| 2026-04-26 00:27 | -16.34038 | -54.87292 | 24068 ft | 386 kts | 284° |
| 2026-04-26 00:28 | -16.33462 | -54.90013 | 23635 ft | 385 kts | 284° |
| 2026-04-26 00:28 | -16.32889 | -54.92724 | 23146 ft | 383 kts | 284° |
| 2026-04-26 00:28 | -16.32326 | -54.95387 | 22710 ft | 380 kts | 284° |
| 2026-04-26 00:28 | -16.31761 | -54.98057 | 22280 ft | 376 kts | 284° |
| 2026-04-26 00:29 | -16.31197 | -55.00706 | 21848 ft | 373 kts | 284° |
| 2026-04-26 00:29 | -16.30633 | -55.03332 | 21420 ft | 371 kts | 284° |
| 2026-04-26 00:29 | -16.30071 | -55.05942 | 20996 ft | 368 kts | 284° |
| 2026-04-26 00:29 | -16.29514 | -55.08534 | 20565 ft | 366 kts | 284° |
| 2026-04-26 00:30 | -16.28964 | -55.11106 | 20145 ft | 363 kts | 284° |
| 2026-04-26 00:30 | -16.28418 | -55.13659 | 19719 ft | 360 kts | 284° |
| 2026-04-26 00:30 | -16.27881 | -55.16165 | 19305 ft | 358 kts | 283° |
| 2026-04-26 00:30 | -16.27343 | -55.18687 | 18887 ft | 356 kts | 283° |
| 2026-04-26 00:31 | -16.26808 | -55.21199 | 18468 ft | 354 kts | 283° |
| 2026-04-26 00:31 | -16.26275 | -55.23698 | 18025 ft | 353 kts | 283° |
| 2026-04-26 00:31 | -16.25744 | -55.26176 | 17591 ft | 349 kts | 283° |
| 2026-04-26 00:31 | -16.25111 | -55.28595 | 17191 ft | 344 kts | 292° |
| 2026-04-26 00:32 | -16.24064 | -55.30811 | 16793 ft | 340 kts | 300° |
| 2026-04-26 00:32 | -16.22946 | -55.32964 | 16400 ft | 336 kts | 299° |
| 2026-04-26 00:32 | -16.20768 | -55.37183 | 15622 ft | 330 kts | 299° |
| 2026-04-26 00:33 | -16.19686 | -55.39277 | 15234 ft | 327 kts | 298° |
| 2026-04-26 00:33 | -16.18613 | -55.41356 | 14853 ft | 325 kts | 298° |
| 2026-04-26 00:33 | -16.17549 | -55.43416 | 14475 ft | 322 kts | 298° |
| 2026-04-26 00:33 | -16.16490 | -55.45463 | 14110 ft | 320 kts | 298° |
| 2026-04-26 00:34 | -16.15437 | -55.47497 | 13716 ft | 318 kts | 298° |
| 2026-04-26 00:34 | -16.14393 | -55.49513 | 13301 ft | 315 kts | 298° |
| 2026-04-26 00:34 | -16.13372 | -55.51484 | 12934 ft | 312 kts | 298° |
| 2026-04-26 00:34 | -16.12351 | -55.53457 | 12568 ft | 309 kts | 298° |
| 2026-04-26 00:35 | -16.11337 | -55.55415 | 12208 ft | 306 kts | 298° |
| 2026-04-26 00:35 | -16.10333 | -55.57355 | 11844 ft | 304 kts | 298° |
| 2026-04-26 00:35 | -16.09333 | -55.59284 | 11469 ft | 302 kts | 298° |
| 2026-04-26 00:35 | -16.08339 | -55.61199 | 11107 ft | 300 kts | 298° |
| 2026-04-26 00:36 | -16.07347 | -55.63106 | 10742 ft | 299 kts | 298° |
| 2026-04-26 00:36 | -16.06363 | -55.65003 | 10385 ft | 298 kts | 298° |
| 2026-04-26 00:36 | -16.05395 | -55.66871 | 10028 ft | 297 kts | 298° |
| 2026-04-26 00:36 | -16.04417 | -55.68756 | 9645 ft | 296 kts | 298° |
| 2026-04-26 00:37 | -16.03442 | -55.70638 | 9264 ft | 295 kts | 299° |
| 2026-04-26 00:37 | -16.02472 | -55.72506 | 8904 ft | 293 kts | 299° |
| 2026-04-26 00:37 | -16.01506 | -55.74363 | 8549 ft | 291 kts | 299° |
| 2026-04-26 00:37 | -16.00548 | -55.76209 | 8188 ft | 290 kts | 299° |
| 2026-04-26 00:38 | -15.99593 | -55.78049 | 7840 ft | 289 kts | 299° |
| 2026-04-26 00:38 | -15.98645 | -55.79881 | 7485 ft | 288 kts | 299° |
| 2026-04-26 00:38 | -15.97708 | -55.81685 | 7139 ft | 287 kts | 299° |
| 2026-04-26 00:38 | -15.96759 | -55.83506 | 6792 ft | 286 kts | 299° |
| 2026-04-26 00:39 | -15.95812 | -55.85325 | 6441 ft | 286 kts | 299° |
| 2026-04-26 00:39 | -15.94867 | -55.87138 | 6080 ft | 285 kts | 299° |
| 2026-04-26 00:39 | -15.93926 | -55.88941 | 5714 ft | 281 kts | 299° |
| 2026-04-26 00:39 | -15.93013 | -55.90691 | 5386 ft | 271 kts | 299° |
| 2026-04-26 00:40 | -15.92131 | -55.92381 | 5062 ft | 261 kts | 299° |
| 2026-04-26 00:40 | -15.91283 | -55.94012 | 4744 ft | 252 kts | 299° |
| 2026-04-26 00:40 | -15.90482 | -55.95557 | 4576 ft | 237 kts | 299° |
| 2026-04-26 00:40 | -15.89724 | -55.97018 | 4487 ft | 225 kts | 299° |
| 2026-04-26 00:41 | -15.88945 | -55.98408 | 4392 ft | 221 kts | 308° |
| 2026-04-26 00:41 | -15.87869 | -55.99523 | 4316 ft | 216 kts | 326° |
| 2026-04-26 00:41 | -15.86625 | -56.00305 | 4265 ft | 202 kts | 333° |
| 2026-04-26 00:41 | -15.85419 | -56.00958 | 4199 ft | 190 kts | 334° |
| 2026-04-26 00:42 | -15.84255 | -56.01578 | 4192 ft | 187 kts | 334° |
| 2026-04-26 00:42 | -15.83095 | -56.02195 | 4054 ft | 187 kts | 334° |
| 2026-04-26 00:42 | -15.81956 | -56.02801 | 3849 ft | 186 kts | 334° |
| 2026-04-26 00:42 | -15.80808 | -56.03412 | 3622 ft | 185 kts | 334° |
| 2026-04-26 00:43 | -15.79669 | -56.04019 | 3431 ft | 185 kts | 333° |
| 2026-04-26 00:43 | -15.78524 | -56.04630 | 3161 ft | 184 kts | 334° |
| 2026-04-26 00:43 | -15.77390 | -56.05233 | 2920 ft | 183 kts | 334° |
| 2026-04-26 00:43 | -15.76261 | -56.05834 | 2689 ft | 182 kts | 333° |
| 2026-04-26 00:44 | -15.75140 | -56.06430 | 2466 ft | 181 kts | 333° |
| 2026-04-26 00:44 | -15.74047 | -56.07012 | 2240 ft | 175 kts | 333° |
| 2026-04-26 00:44 | -15.72981 | -56.07580 | 2021 ft | 167 kts | 333° |
| 2026-04-26 00:44 | -15.72014 | -56.08094 | 1821 ft | 147 kts | 333° |
| 2026-04-26 00:45 | -15.71134 | -56.08562 | 1643 ft | 139 kts | 333° |
| 2026-04-26 00:45 | -15.70572 | -56.08861 | 1529 ft | 136 kts | 333° |
| 2026-04-26 00:45 | -15.69452 | -56.09457 | 1317 ft | 135 kts | 333° |
| 2026-04-26 00:45 | -15.68615 | -56.09902 | 1152 ft | 135 kts | 333° |
| 2026-04-26 00:46 | -15.67781 | -56.10345 | 987 ft | 135 kts | 333° |
| 2026-04-26 00:46 | -15.66955 | -56.10781 | 820 ft | 135 kts | 333° |
| 2026-04-26 00:46 | -15.66121 | -56.11230 | 638 ft | 135 kts | 332° |
| 2026-04-26 00:46 | -15.65377 | -56.11625 | 603 ft | 92 kts | 333° |
| 2026-04-26 00:47 | -15.65096 | -56.11774 | 616 ft | 13 kts | 333° |
| 2026-04-26 00:47 | -15.65057 | -56.11828 | 620 ft | 8 kts | 252° |
| 2026-04-26 00:47 | -15.65071 | -56.11856 | 605 ft | 6 kts | 243° |
| 2026-04-26 00:47 | -15.65086 | -56.11887 | 617 ft | 5 kts | 245° |
| 2026-04-26 00:48 | -15.65066 | -56.11920 | 614 ft | 6 kts | 321° |
| 2026-04-26 00:48 | -15.65040 | -56.11934 | 616 ft | 2 kts | 333° |
| 2026-04-26 00:48 | -15.65029 | -56.11940 | 605 ft | 1 kts | 334° |
| 2026-04-26 00:48 | -15.65023 | -56.11943 | 605 ft | 0 kts | 334° |
| 2026-04-26 00:49 | -15.65010 | -56.11950 | 615 ft | 6 kts | 334° |
| 2026-04-26 00:49 | -15.64972 | -56.11972 | 617 ft | 6 kts | 326° |
| 2026-04-26 00:49 | -15.64971 | -56.11996 | 619 ft | 2 kts | 254° |
| 2026-04-26 00:49 | -15.64980 | -56.12016 | 605 ft | 3 kts | 244° |
| 2026-04-26 00:50 | -15.64982 | -56.12020 | 605 ft | 0 kts | 244° |